createdAt,value
2022-09-12T00:01:28.663Z,80.09
2022-09-12T00:04:00.235Z,79.81
2022-09-12T00:06:31.083Z,80.28
2022-09-12T00:09:03.022Z,79.97
2022-09-12T00:11:31.249Z,80.26
2022-09-12T00:14:01.980Z,80.40
2022-09-12T00:16:33.150Z,80.28
2022-09-12T00:19:02.273Z,80.39
2022-09-12T00:21:31.150Z,80.14
2022-09-12T00:24:00.718Z,80.05
2022-09-12T00:26:28.839Z,80.19
2022-09-12T00:28:57.009Z,79.94
2022-09-12T00:31:27.674Z,80.82
2022-09-12T00:34:00.663Z,80.94
2022-09-12T00:36:32.359Z,81.06
2022-09-12T00:39:03.030Z,80.62
2022-09-12T00:41:34.287Z,80.61
2022-09-12T00:44:05.669Z,81.04
2022-09-12T00:46:39.855Z,81.44
2022-09-12T00:49:15.547Z,81.39
2022-09-12T00:51:56.642Z,81.18
2022-09-12T00:54:31.865Z,81.65
2022-09-12T00:57:05.870Z,81.20
2022-09-12T00:59:39.749Z,81.24
2022-09-12T01:02:08.745Z,81.53
2022-09-12T01:04:39.945Z,81.74
2022-09-12T01:07:09.859Z,81.69
2022-09-12T01:09:41.058Z,81.52
2022-09-12T01:12:09.944Z,81.78
2022-09-12T01:14:38.756Z,82.28
2022-09-12T01:17:06.968Z,82.29
2022-09-12T01:20:18.307Z,81.99
2022-09-12T01:23:11.067Z,81.94
2022-09-12T01:26:02.039Z,81.86
2022-09-12T01:29:00.780Z,82.53
2022-09-12T01:31:37.833Z,82.32
2022-09-12T01:34:18.424Z,82.59
2022-09-12T01:36:57.550Z,82.46
2022-09-12T01:39:34.143Z,82.52
2022-09-12T01:42:12.258Z,82.18
2022-09-12T01:44:49.537Z,82.55
2022-09-12T01:47:25.549Z,82.44
2022-09-12T01:50:02.082Z,82.49
2022-09-12T01:52:38.173Z,83.25
2022-09-12T01:55:12.894Z,83.01
2022-09-12T01:57:45.989Z,82.97
2022-09-12T02:00:15.422Z,83.07
2022-09-12T02:02:52.904Z,83.12
2022-09-12T02:05:27.714Z,82.85
2022-09-12T02:08:02.834Z,82.91
2022-09-12T02:10:35.517Z,83.13
2022-09-12T02:13:10.666Z,83.19
2022-09-12T02:15:43.143Z,83.06
2022-09-12T02:18:16.018Z,83.20
2022-09-12T02:20:49.013Z,83.10
2022-09-12T02:23:23.729Z,83.95
2022-09-12T02:25:56.233Z,83.73
2022-09-12T02:28:29.305Z,84.00
2022-09-12T02:31:07.165Z,83.73
2022-09-12T02:33:49.208Z,84.21
2022-09-12T02:36:30.867Z,83.51
2022-09-12T02:39:00.182Z,84.04
2022-09-12T02:41:28.451Z,83.91
2022-09-12T02:43:56.956Z,84.00
2022-09-12T02:46:30.779Z,84.76
2022-09-12T02:49:00.360Z,85.05
2022-09-12T02:51:28.913Z,84.80
2022-09-12T02:53:57.243Z,84.64
2022-09-12T02:56:28.831Z,85.42
2022-09-12T02:59:00.649Z,85.23
2022-09-12T03:01:51.195Z,85.28
2022-09-12T03:04:48.899Z,85.34
2022-09-12T03:07:31.526Z,85.40
2022-09-12T03:10:10.394Z,85.54
2022-09-12T03:12:49.622Z,85.53
2022-09-12T03:15:39.067Z,86.19
2022-09-12T03:18:21.434Z,85.56
2022-09-12T03:21:01.036Z,86.34
2022-09-12T03:23:38.040Z,86.44
2022-09-12T03:26:11.890Z,86.49
2022-09-12T03:28:41.672Z,85.92
2022-09-12T03:31:20.937Z,86.25
2022-09-12T03:33:49.173Z,86.26
2022-09-12T03:36:24.091Z,86.09
2022-09-12T03:38:52.485Z,86.27
2022-09-12T03:41:21.127Z,86.45
2022-09-12T03:43:49.672Z,87.11
2022-09-12T03:46:17.707Z,86.72
2022-09-12T03:48:45.917Z,86.52
2022-09-12T03:51:14.048Z,86.77
2022-09-12T03:53:43.535Z,87.57
2022-09-12T03:56:13.303Z,87.74
2022-09-12T03:58:42.568Z,87.25
2022-09-12T04:01:12.877Z,87.24
2022-09-12T04:03:41.626Z,87.73
2022-09-12T04:06:11.658Z,87.66
2022-09-12T04:08:40.282Z,88.30
2022-09-12T04:11:12.435Z,87.62
2022-09-12T04:13:42.480Z,88.11
2022-09-12T04:16:12.051Z,88.06
2022-09-12T04:18:40.371Z,88.51
2022-09-12T04:21:11.422Z,88.48
2022-09-12T04:23:39.496Z,87.90
2022-09-12T04:26:10.011Z,88.06
2022-09-12T04:28:39.487Z,88.11
2022-09-12T04:31:09.970Z,88.82
2022-09-12T04:33:38.273Z,88.74
2022-09-12T04:36:08.980Z,88.69
2022-09-12T04:38:38.364Z,88.76
2022-09-12T04:41:14.226Z,88.81
2022-09-12T04:43:42.574Z,88.79
2022-09-12T04:46:12.604Z,88.88
2022-09-12T04:48:40.876Z,88.34
2022-09-12T04:51:11.141Z,88.74
2022-09-12T04:53:39.651Z,88.66
2022-09-12T04:56:10.936Z,88.41
2022-09-12T04:58:40.385Z,88.49
2022-09-12T05:01:10.727Z,89.19
2022-09-12T05:03:39.594Z,88.47
2022-09-12T05:06:09.724Z,88.82
2022-09-12T05:08:38.278Z,88.99
2022-09-12T05:11:08.147Z,88.62
2022-09-12T05:13:36.833Z,88.41
2022-09-12T05:16:08.787Z,88.53
2022-09-12T05:18:38.276Z,88.55
2022-09-12T05:21:09.291Z,88.64
2022-09-12T05:23:37.855Z,88.51
2022-09-12T05:26:08.430Z,88.36
2022-09-12T05:28:40.236Z,87.63
2022-09-12T05:31:12.779Z,88.09
2022-09-12T05:33:44.942Z,87.58
2022-09-12T05:36:18.204Z,87.39
2022-09-12T05:38:47.306Z,87.35
2022-09-12T05:41:20.846Z,87.40
2022-09-12T05:43:54.580Z,87.22
2022-09-12T05:46:26.824Z,86.68
2022-09-12T05:48:56.876Z,87.33
2022-09-12T05:51:28.143Z,87.05
2022-09-12T05:53:59.216Z,86.68
2022-09-12T05:56:29.726Z,86.53
2022-09-12T05:59:00.015Z,86.63
2022-09-12T06:01:31.310Z,86.05
2022-09-12T06:04:01.813Z,86.11
2022-09-12T06:06:32.246Z,85.87
2022-09-12T06:09:02.945Z,85.64
2022-09-12T06:11:33.229Z,85.55
2022-09-12T06:14:02.676Z,85.60
2022-09-12T06:16:34.969Z,85.45
2022-09-12T06:19:06.620Z,85.04
2022-09-12T06:21:35.518Z,85.17
2022-09-12T06:24:03.947Z,85.00
2022-09-12T06:26:32.299Z,85.01
2022-09-12T06:29:02.199Z,84.65
2022-09-12T06:31:34.939Z,84.58
2022-09-12T06:34:06.216Z,84.37
2022-09-12T06:36:38.244Z,84.13
2022-09-12T06:39:09.745Z,83.65
2022-09-12T06:41:42.990Z,83.65
2022-09-12T06:44:15.530Z,83.27
2022-09-12T06:46:45.230Z,83.06
2022-09-12T06:49:14.160Z,82.81
2022-09-12T06:51:43.065Z,82.50
2022-09-12T06:54:18.258Z,82.46
2022-09-12T06:56:46.447Z,82.20
2022-09-12T06:59:14.716Z,82.09
2022-09-12T07:01:44.297Z,81.77
2022-09-12T07:04:12.864Z,81.60
2022-09-12T07:06:44.557Z,81.49
2022-09-12T07:09:16.273Z,81.21
2022-09-12T07:11:46.252Z,81.14
2022-09-12T07:14:15.731Z,80.88
2022-09-12T07:16:45.425Z,80.84
2022-09-12T07:19:13.580Z,80.52
2022-09-12T07:21:42.152Z,80.42
2022-09-12T07:24:11.488Z,80.27
2022-09-12T07:26:42.206Z,79.93
2022-09-12T07:32:07.578Z,79.42
2022-09-12T07:34:36.441Z,79.28
2022-09-12T07:37:04.680Z,78.98
2022-09-12T07:39:32.818Z,78.82
2022-09-12T07:42:01.441Z,78.16
2022-09-12T07:44:29.562Z,78.12
2022-09-12T07:46:57.677Z,77.58
2022-09-12T07:49:27.762Z,77.48
2022-09-12T07:51:55.833Z,76.97
2022-09-12T07:54:24.260Z,76.43
2022-09-12T07:56:52.483Z,76.39
2022-09-12T07:59:35.659Z,76.18
2022-09-12T08:02:17.174Z,75.68
2022-09-12T08:04:48.479Z,75.53
2022-09-12T08:07:18.247Z,75.03
2022-09-12T08:09:46.426Z,75.08
2022-09-12T08:12:15.110Z,74.45
2022-09-12T08:14:43.199Z,74.27
2022-09-12T08:17:11.298Z,74.14
2022-09-12T08:19:39.427Z,73.60
2022-09-12T08:22:09.787Z,73.24
2022-09-12T08:24:39.135Z,72.89
2022-09-12T08:27:07.558Z,72.59
2022-09-12T08:29:35.639Z,72.07
2022-09-12T08:32:04.666Z,71.95
2022-09-12T08:34:32.762Z,71.67
2022-09-12T08:37:00.939Z,71.05
2022-09-12T08:39:32.656Z,70.49
2022-09-12T08:42:04.033Z,70.19
2022-09-12T08:45:17.502Z,70.18
2022-09-12T08:47:48.219Z,69.53
2022-09-12T08:50:21.131Z,68.97
2022-09-12T08:52:58.478Z,68.72
2022-09-12T08:55:35.039Z,67.94
2022-09-12T08:58:12.063Z,67.50
2022-09-12T09:00:55.076Z,67.07
2022-09-12T09:04:20.577Z,67.20
2022-09-12T09:07:34.530Z,66.26
2022-09-12T09:10:19.474Z,65.83
2022-09-12T09:13:00.796Z,65.23
2022-09-12T09:15:51.410Z,65.22
2022-09-12T09:18:24.600Z,65.18
2022-09-12T09:20:57.600Z,65.15
2022-09-12T09:23:30.814Z,64.87
2022-09-12T09:26:07.172Z,64.25
2022-09-12T09:28:43.477Z,63.58
2022-09-12T09:31:17.140Z,63.50
2022-09-12T09:33:49.275Z,62.92
2022-09-12T09:36:23.932Z,62.52
2022-09-12T09:39:00.955Z,62.52
2022-09-12T09:41:48.301Z,62.28
2022-09-12T09:44:18.179Z,61.85
2022-09-12T09:46:46.329Z,61.95
2022-09-12T09:49:15.500Z,61.62
2022-09-12T09:51:44.360Z,61.63
2022-09-12T09:54:21.320Z,61.39
2022-09-12T09:56:49.475Z,61.31
2022-09-12T09:59:21.780Z,61.68
2022-09-12T10:01:54.830Z,61.74
2022-09-12T10:04:26.011Z,61.83
2022-09-12T10:06:55.873Z,62.20
2022-09-12T10:09:27.158Z,61.87
2022-09-12T10:11:57.576Z,61.88
2022-09-12T10:14:37.679Z,61.50
2022-09-12T10:17:28.684Z,61.47
2022-09-12T10:20:19.907Z,61.81
2022-09-12T10:22:49.676Z,62.34
2022-09-12T10:25:20.146Z,61.69
2022-09-12T10:27:57.757Z,62.49
2022-09-12T10:30:29.617Z,61.75
2022-09-12T10:33:08.449Z,61.28
2022-09-12T10:35:47.276Z,60.77
2022-09-12T10:38:23.400Z,60.49
2022-09-12T10:40:59.796Z,60.21
2022-09-12T10:43:31.315Z,60.46
2022-09-12T10:46:21.986Z,59.91
2022-09-12T10:48:52.717Z,59.55
2022-09-12T10:51:29.854Z,60.26
2022-09-12T10:54:00.971Z,59.18
2022-09-12T10:56:34.945Z,58.85
2022-09-12T10:59:22.662Z,58.59
2022-09-12T11:02:01.271Z,58.04
2022-09-12T11:04:44.691Z,57.67
2022-09-12T11:07:43.458Z,58.12
2022-09-12T11:10:27.120Z,56.47
2022-09-12T11:13:11.644Z,56.61
2022-09-12T11:16:02.713Z,55.46
2022-09-12T11:18:54.308Z,55.14
2022-09-12T11:21:40.215Z,54.57
2022-09-12T11:24:29.277Z,54.95
2022-09-12T11:27:22.425Z,55.07
2022-09-12T11:29:52.483Z,54.59
2022-09-12T11:32:44.621Z,53.46
2022-09-12T11:35:24.434Z,53.69
2022-09-12T11:38:23.440Z,53.54
2022-09-12T11:40:58.135Z,51.92
2022-09-12T11:43:41.330Z,50.96
2022-09-12T11:46:19.317Z,50.07
2022-09-12T11:48:56.869Z,48.52
2022-09-12T11:51:30.976Z,48.12
2022-09-12T11:54:13.956Z,47.31
2022-09-12T11:56:47.299Z,46.92
2022-09-12T11:59:32.732Z,45.28
2022-09-12T12:02:01.937Z,43.75
2022-09-12T12:04:39.350Z,44.09
2022-09-12T12:07:12.421Z,43.76
2022-09-12T12:09:51.349Z,43.88
2022-09-12T12:12:25.676Z,43.26
2022-09-12T12:14:55.939Z,43.73
2022-09-12T12:17:26.985Z,42.08
2022-09-12T12:20:07.413Z,42.66
2022-09-12T12:22:37.361Z,43.03
2022-09-12T12:25:39.974Z,43.09
2022-09-12T12:28:08.380Z,42.69
2022-09-12T12:31:04.343Z,41.66
2022-09-12T12:34:23.507Z,40.68
2022-09-12T12:36:51.630Z,39.38
2022-09-12T12:40:05.800Z,38.88
2022-09-12T12:43:32.930Z,38.22
2022-09-12T12:46:09.284Z,38.08
2022-09-12T12:49:10.750Z,36.81
2022-09-12T12:52:06.036Z,37.57
2022-09-12T12:54:54.736Z,36.44
2022-09-12T12:57:47.425Z,36.44
2022-09-12T13:00:32.264Z,36.10
2022-09-12T13:03:04.273Z,35.37
2022-09-12T13:05:40.966Z,35.30
2022-09-12T13:08:12.180Z,34.45
2022-09-12T13:10:50.172Z,33.72
2022-09-12T13:13:27.294Z,33.80
2022-09-12T13:15:55.727Z,33.77
2022-09-12T13:18:28.646Z,33.69
2022-09-12T13:21:09.014Z,32.94
2022-09-12T13:23:37.568Z,32.25
2022-09-12T13:26:14.001Z,31.49
2022-09-12T13:28:43.469Z,31.78
2022-09-12T13:31:19.107Z,31.83
2022-09-12T13:33:50.954Z,32.32
2022-09-12T13:36:48.236Z,32.86
2022-09-12T13:39:21.528Z,33.34
2022-09-12T13:42:41.612Z,32.10
2022-09-12T13:45:16.859Z,31.16
2022-09-12T13:47:47.378Z,30.53
2022-09-12T13:50:21.293Z,29.58
2022-09-12T13:52:54.015Z,29.92
2022-09-12T13:55:31.475Z,29.27
2022-09-12T13:58:02.744Z,29.91
2022-09-12T14:00:34.939Z,29.24
2022-09-12T14:03:20.995Z,30.28
2022-09-12T14:05:57.557Z,30.18
2022-09-12T14:08:26.929Z,30.64
2022-09-12T14:10:55.413Z,30.38
2022-09-12T14:13:26.748Z,29.90
2022-09-12T14:15:59.825Z,30.09
2022-09-12T14:18:31.130Z,30.40
2022-09-12T14:21:10.494Z,30.79
2022-09-12T14:23:42.548Z,30.47
2022-09-12T14:26:13.847Z,30.96
2022-09-12T14:28:44.840Z,30.36
2022-09-12T14:31:25.470Z,30.87
2022-09-12T14:33:56.006Z,31.52
2022-09-12T14:36:26.550Z,32.03
2022-09-12T14:38:57.855Z,32.22
2022-09-12T14:41:30.754Z,33.48
2022-09-12T14:44:02.760Z,33.28
2022-09-12T14:46:36.110Z,32.33
2022-09-12T14:49:11.298Z,32.32
2022-09-12T14:51:42.010Z,32.02
2022-09-12T14:54:39.431Z,31.60
2022-09-12T14:57:33.307Z,32.14
2022-09-12T15:00:26.029Z,32.76
2022-09-12T15:02:56.224Z,33.12
2022-09-12T15:05:29.478Z,33.67
2022-09-12T15:08:01.406Z,33.38
2022-09-12T15:10:33.825Z,33.34
2022-09-12T15:13:17.312Z,34.43
2022-09-12T15:15:48.197Z,34.21
2022-09-12T15:18:18.769Z,34.11
2022-09-12T15:20:49.301Z,33.29
2022-09-12T15:23:30.996Z,32.36
2022-09-12T15:25:59.134Z,31.95
2022-09-12T15:28:27.853Z,32.58
2022-09-12T15:30:58.347Z,30.82
2022-09-12T15:33:27.841Z,31.60
2022-09-12T15:35:56.014Z,31.49
2022-09-12T15:38:26.581Z,32.47
2022-09-12T15:40:55.722Z,32.78
2022-09-12T15:43:26.293Z,33.75
2022-09-12T15:45:54.534Z,34.30
2022-09-12T15:48:27.306Z,34.42
2022-09-12T15:50:57.595Z,35.37
2022-09-12T15:53:26.115Z,34.80
2022-09-12T15:55:54.170Z,34.41
2022-09-12T15:58:22.213Z,34.83
2022-09-12T16:00:50.498Z,34.35
2022-09-12T16:03:24.811Z,34.75
2022-09-12T16:05:58.140Z,35.32
2022-09-12T16:08:26.931Z,35.66
2022-09-12T16:10:58.439Z,35.66
2022-09-12T16:13:29.285Z,35.89
2022-09-12T16:15:59.246Z,35.19
2022-09-12T16:18:27.805Z,33.98
2022-09-12T16:20:58.325Z,33.68
2022-09-12T16:23:26.414Z,32.53
2022-09-12T16:26:02.140Z,32.49
2022-09-12T16:28:30.735Z,32.75
2022-09-12T16:31:00.387Z,32.15
2022-09-12T16:33:29.617Z,32.21
2022-09-12T16:36:04.370Z,31.64
2022-09-12T16:38:33.709Z,31.86
2022-09-12T16:41:02.535Z,32.24
2022-09-12T16:43:31.962Z,32.52
2022-09-12T16:46:04.481Z,32.39
2022-09-12T16:48:33.672Z,33.21
2022-09-12T16:51:06.867Z,34.86
2022-09-12T16:53:36.930Z,35.74
2022-09-12T16:56:05.744Z,35.74
2022-09-12T16:58:38.482Z,36.05
2022-09-12T17:01:11.521Z,36.92
2022-09-12T17:03:40.300Z,36.50
2022-09-12T17:06:13.906Z,35.94
2022-09-12T17:08:44.497Z,36.33
2022-09-12T17:11:15.586Z,35.48
2022-09-12T17:14:03.907Z,36.93
2022-09-12T17:16:35.431Z,37.67
2022-09-12T17:19:04.355Z,38.28
2022-09-12T17:21:35.095Z,39.04
2022-09-12T17:24:03.714Z,39.29
2022-09-12T17:26:31.890Z,39.69
2022-09-12T17:29:03.195Z,40.66
2022-09-12T17:31:31.446Z,41.67
2022-09-12T17:34:00.760Z,42.30
2022-09-12T17:36:31.865Z,43.40
2022-09-12T17:39:02.820Z,43.78
2022-09-12T17:41:32.793Z,44.40
2022-09-12T17:44:03.529Z,45.15
2022-09-12T17:46:34.979Z,45.28
2022-09-12T17:49:05.251Z,45.80
2022-09-12T17:51:33.881Z,46.56
2022-09-12T17:54:07.226Z,46.98
2022-09-12T17:56:37.202Z,47.47
2022-09-12T17:59:07.317Z,48.79
2022-09-12T18:01:52.989Z,49.50
2022-09-12T18:04:21.292Z,49.59
2022-09-12T18:06:50.146Z,50.22
2022-09-12T18:09:23.249Z,49.76
2022-09-12T18:11:52.587Z,50.13
2022-09-12T18:14:21.117Z,50.84
2022-09-12T18:16:49.790Z,50.73
2022-09-12T18:19:18.717Z,50.59
2022-09-12T18:21:47.429Z,51.13
2022-09-12T18:24:15.982Z,51.83
2022-09-12T18:26:45.394Z,51.65
2022-09-12T18:29:16.795Z,51.96
2022-09-12T18:31:46.661Z,51.95
2022-09-12T18:34:15.223Z,52.18
2022-09-12T18:36:45.796Z,53.01
2022-09-12T18:39:14.095Z,52.91
2022-09-12T18:41:42.549Z,53.46
2022-09-12T18:44:13.169Z,53.61
2022-09-12T18:46:41.459Z,53.52
2022-09-12T18:49:10.629Z,54.37
2022-09-12T18:51:41.630Z,54.32
2022-09-12T18:54:14.441Z,54.36
2022-09-12T18:56:43.962Z,54.53
2022-09-12T18:59:14.861Z,54.60
2022-09-12T19:01:44.090Z,54.44
2022-09-12T19:04:13.766Z,54.81
2022-09-12T19:06:43.485Z,54.74
2022-09-12T19:09:13.989Z,55.17
2022-09-12T19:11:48.859Z,55.06
2022-09-12T19:14:20.560Z,55.20
2022-09-12T19:16:50.725Z,55.50
2022-09-12T19:19:19.198Z,55.73
2022-09-12T19:21:47.824Z,55.83
2022-09-12T19:24:17.038Z,55.96
2022-09-12T19:26:45.310Z,56.13
2022-09-12T19:29:14.664Z,55.92
2022-09-12T19:31:45.935Z,56.26
2022-09-12T19:34:15.329Z,56.40
2022-09-12T19:36:46.289Z,56.19
2022-09-12T19:39:16.192Z,56.13
2022-09-12T19:41:44.995Z,56.36
2022-09-12T19:44:14.119Z,56.36
2022-09-12T19:46:43.668Z,56.22
2022-09-12T19:49:13.352Z,56.22
2022-09-12T19:51:41.783Z,56.29
2022-09-12T19:54:10.486Z,56.30
2022-09-12T19:56:38.613Z,56.37
2022-09-12T19:59:06.704Z,56.45
2022-09-12T20:01:36.896Z,56.21
2022-09-12T20:04:07.550Z,56.11
2022-09-12T20:06:36.700Z,55.90
2022-09-12T20:09:05.339Z,56.00
2022-09-12T20:11:33.745Z,56.42
2022-09-12T20:14:01.992Z,56.55
2022-09-12T20:16:31.100Z,57.07
2022-09-12T20:19:01.694Z,57.43
2022-09-12T20:21:34.097Z,57.55
2022-09-12T20:24:04.726Z,57.77
2022-09-12T20:26:33.097Z,57.91
2022-09-12T20:29:01.662Z,58.16
2022-09-12T20:31:30.462Z,58.33
2022-09-12T20:33:58.873Z,59.04
2022-09-12T20:36:27.450Z,59.59
2022-09-12T20:38:59.906Z,60.10
2022-09-12T20:41:30.304Z,61.32
2022-09-12T20:43:59.209Z,62.47
2022-09-12T20:46:29.182Z,64.01
2022-09-12T20:48:59.405Z,65.70
2022-09-12T20:51:29.657Z,66.78
2022-09-12T20:54:01.044Z,68.28
2022-09-12T20:56:31.703Z,69.61
2022-09-12T20:59:00.987Z,70.33
2022-09-12T21:01:31.280Z,71.46
2022-09-12T21:04:01.393Z,72.22
2022-09-12T21:06:29.679Z,72.93
2022-09-12T21:09:00.509Z,73.52
2022-09-12T21:11:29.611Z,73.59
2022-09-12T21:13:58.414Z,74.23
2022-09-12T21:16:27.304Z,74.62
2022-09-12T21:18:57.465Z,74.88
2022-09-12T21:21:26.490Z,75.40
2022-09-12T21:23:55.320Z,76.12
2022-09-12T21:26:24.744Z,76.24
2022-09-12T21:28:52.815Z,76.58
2022-09-12T21:31:21.187Z,76.64
2022-09-12T21:33:49.422Z,77.09
2022-09-12T21:36:17.602Z,76.89
2022-09-12T21:38:45.706Z,77.13
2022-09-12T21:41:15.729Z,77.19
2022-09-12T21:43:45.469Z,77.07
2022-09-12T21:46:13.815Z,76.92
2022-09-12T21:48:43.990Z,77.02
2022-09-12T21:51:12.141Z,77.39
2022-09-12T21:53:40.448Z,77.20
2022-09-12T21:56:10.428Z,76.88
2022-09-12T21:58:39.263Z,77.06
2022-09-12T22:01:12.338Z,77.30
2022-09-12T22:03:42.995Z,77.31
2022-09-12T22:06:11.121Z,77.16
2022-09-12T22:08:40.463Z,76.93
2022-09-12T22:11:10.391Z,77.17
2022-09-12T22:13:40.051Z,77.05
2022-09-12T22:16:10.389Z,77.13
2022-09-12T22:18:39.492Z,76.92
2022-09-12T22:21:12.283Z,77.18
2022-09-12T22:23:57.987Z,77.24
2022-09-12T22:26:27.011Z,77.29
2022-09-12T22:28:55.356Z,77.57
2022-09-12T22:31:26.912Z,77.55
2022-09-12T22:33:57.368Z,77.74
2022-09-12T22:36:30.432Z,78.09
2022-09-12T22:38:59.683Z,77.93
2022-09-12T22:41:28.384Z,78.12
2022-09-12T22:43:57.516Z,78.23
2022-09-12T22:46:27.488Z,78.37
2022-09-12T22:48:55.946Z,78.45
2022-09-12T22:51:24.025Z,78.59
2022-09-12T22:53:52.497Z,78.72
2022-09-12T22:56:20.557Z,79.02
2022-09-12T22:58:48.714Z,78.67
2022-09-12T23:01:16.888Z,78.93
2022-09-12T23:03:46.520Z,78.96
2022-09-12T23:06:14.680Z,78.95
2022-09-12T23:08:42.815Z,79.36
2022-09-12T23:11:14.573Z,79.25
2022-09-12T23:13:47.305Z,79.64
2022-09-12T23:16:19.902Z,79.58
2022-09-12T23:18:49.823Z,79.86
2022-09-12T23:21:20.763Z,80.03
2022-09-12T23:23:49.010Z,80.34
2022-09-12T23:26:19.278Z,80.21
2022-09-12T23:28:51.100Z,80.29
2022-09-12T23:31:19.504Z,80.70
2022-09-12T23:33:50.115Z,81.57
2022-09-12T23:36:18.154Z,82.60
2022-09-12T23:38:47.997Z,83.33
2022-09-12T23:41:17.950Z,83.50
2022-09-12T23:43:47.009Z,83.88
2022-09-12T23:46:17.086Z,84.04
2022-09-12T23:48:45.918Z,84.33
2022-09-12T23:51:15.939Z,84.69
2022-09-12T23:53:44.130Z,85.01
2022-09-12T23:56:12.573Z,85.09
2022-09-12T23:58:40.618Z,85.44
